Valley Springs, South Dakota
Current Conditions -  °F | °C
As of 6:14 AM on Saturday 20 Dec 2014 (Local Time) from KLYV Reporting Station
Haze Haze  
Wind Chill: 26°   Ceiling: 400
Heat Index: 32°   Visibility: 2mi
Dew Point: 30°   Wind: 7mph
Humidity: 93%   Direction: 170°S
Pressure: 30.08"   Gusts: NA
Location:  43.58°N, 96.47°W
Report Text: KLYV 201214Z AUTO 17006KT 2SM BR OVC004 00/M01 A3008 RMK AO2
Loading
Personal Weather Stations






























Interactive Weather Map New forecast layout! Learn more

10-Day Weather Forecast

Advertisements
Track Severe Weather on mobile